Data for 12/01/2010

Time Sea-Level Adjusted Pressure Absolute Pressure Temperature Relative Humidity Dew Point   
(mb) (inHg) (mb) (inHg) (C) (F) (%) (C) (F)
00:05 1018 30.06 847 25.01 -6.8 19.8 73 -10.9 12.4
00:10 1018 30.06 847 25.01 -7.2 19.1 77 -10.5 13
00:15 1018 30.06 847 25.01 -7.3 18.9 78 -10.5 13.1
00:20 1018 30.06 847 25.01 -6.7 20 75 -10.4 13.2
00:25 1018 30.06 847 25.01 -6.1 21 73 -10.2 13.7
00:30 1018 30.06 847 25.01 -6.4 20.4 75 -10.2 13.6
00:35 1018 30.06 847 25.01 -6.3 20.7 72 -10.6 12.9
00:40 1018 30.06 847 25.01 -6.8 19.7 76 -10.3 13.4
00:45 1018 30.06 847 25.01 -7.1 19.2 77 -10.4 13.2
00:50 1018 30.06 847 25.01 -6.8 19.8 74 -10.6 12.9
00:55 1018 30.06 847 25.01 -6.4 20.5 74 -10.3 13.5
01:00 1018 30.06 847 25.01 -5.9 21.4 71 -10.3 13.5
01:05 1018 30.06 847 25.01 -5.8 21.6 72 -10 14
01:10 1018 30.06 847 25.01 -6.1 21.1 75 -9.7 14.5
01:15 1018 30.06 847 25.01 -5.1 22.7 69 -10.1 13.9
01:20 1018 30.06 847 25.01 -4.7 23.5 71 -9.2 15.4
01:25 1018 30.06 847 25.01 -5.3 22.4 73 -9.4 15.1
01:30 1018 30.06 847 25.01 -5.7 21.7 75 -9.5 14.9
01:35 1018 30.06 847 25.01 -6 21.3 76 -9.6 14.8
01:40 1018 30.06 847 25.01 -6.2 20.8 78 -9.5 14.9
01:45 1018 30.06 847 25.01 -6.3 20.7 78 -9.4 15
01:50 1018 30.06 847 25.01 -6 21.2 77 -9.4 15
01:55 1018 30.06 847 25.01 -6 21.1 78 -9.4 15.2
02:00 1018 30.06 847 25.01 -5.8 21.6 75 -9.6 14.8
02:05 1018 30.06 847 25.01 -6.4 20.5 77 -9.7 14.5
02:10 1018 30.06 847 25.01 -6.5 20.3 76 -10.1 13.8
02:15 1018 30.06 847 25.01 -5.8 21.6 73 -9.8 14.3
02:20 1018 30.06 847 25.01 -6.5 20.3 76 -10 14
02:25 1018 30.06 847 25.01 -6.8 19.8 76 -10.3 13.4
02:30 1018 30.06 847 25.01 -6.4 20.5 74 -10.3 13.4
02:35 1018 30.06 847 25.01 -6.5 20.2 75 -10.2 13.6
02:40 1018 30.06 847 25.01 -6.7 20 76 -10.2 13.6
02:45 1017 30.03 847 25.01 -6.9 19.7 77 -10.3 13.5
02:50 1018 30.06 847 25.01 -6.5 20.3 75 -10.2 13.6
02:55 1018 30.06 847 25.01 -5.9 21.3 76 -9.5 14.9
03:00 1018 30.06 847 25.01 -5.7 21.7 75 -9.4 15.1
03:05 1018 30.06 847 25.01 -5.6 21.9 76 -9.2 15.4
03:10 1018 30.06 847 25.01 -5.5 22 76 -9.1 15.6
03:15 1018 30.06 847 25.01 -5.1 22.8 75 -9 15.9
03:20 1018 30.06 847 25.01 -4.9 23.1 74 -8.9 16
03:25 1018 30.06 847 25.01 -4.9 23.2 73 -8.9 15.9
03:30 1018 30.06 847 25.01 -4.9 23.2 73 -9.1 15.7
03:35 1018 30.06 847 25.01 -5.2 22.6 74 -9.2 15.4
03:40 1018 30.06 847 25.01 -5.5 22 73 -9.6 14.7
03:45 1018 30.06 847 25.01 -5.6 22 77 -9.1 15.7
03:50 1018 30.06 847 25.01 -5.9 21.4 75 -9.6 14.8
03:55 1018 30.06 847 25.01 -5.6 22 78 -8.8 16.1
04:00 1018 30.06 847 25.01 -5.2 22.6 76 -8.9 16.1
04:05 1018 30.06 847 25.01 -4.5 23.9 71 -8.9 15.9
04:10 1018 30.06 847 25.01 -4.2 24.4 71 -8.7 16.4
04:15 1018 30.06 847 25.01 -4.1 24.6 71 -8.6 16.6
04:20 1018 30.06 847 25.01 -4.1 24.6 73 -8.3 17
04:25 1018 30.06 847 25.01 -4.7 23.6 75 -8.4 16.9
04:30 1018 30.06 847 25.01 -4.5 23.8 73 -8.6 16.5
04:35 1018 30.06 847 25.01 -4 24.9 71 -8.4 16.9
04:40 1018 30.06 847 25.01 -4.3 24.2 74 -8.3 17.1
04:45 1018 30.06 847 25.01 -4.1 24.6 73 -8.3 17
04:50 1018 30.06 847 25.01 -4.2 24.4 74 -8.1 17.3
04:55 1018 30.06 847 25.01 -4.1 24.5 73 -8.4 17
05:00 1018 30.06 847 25.01 -4.1 24.7 74 -8 17.7
05:05 1018 30.06 847 25.01 -4.1 24.7 74 -8.1 17.5
05:10 1018 30.06 847 25.01 -3.9 25.1 74 -7.9 17.8
05:15 1018 30.06 847 25.01 -3.9 25 75 -7.7 18.1
05:20 1018 30.06 847 25.01 -4 24.9 75 -7.8 17.9
05:25 1018 30.06 847 25.01 -3.9 24.9 75 -7.8 18
05:30 1018 30.06 847 25.01 -3.7 25.4 73 -7.8 18
05:35 1018 30.06 847 25.01 -3.5 25.7 73 -7.8 18
05:40 1018 30.06 847 25.01 -3.4 25.9 72 -7.8 18
05:45 1018 30.06 847 25.01 -3.3 26.1 71 -7.9 17.8
05:50 1018 30.06 847 25.01 -3.3 26 72 -7.7 18.1
05:55 1018 30.06 847 25.01 -3.4 25.8 72 -7.7 18.1
06:00 1018 30.06 847 25.01 -3.5 25.8 72 -7.9 17.8
06:05 1018 30.06 847 25.01 -3.3 26.1 70 -7.9 17.7
06:10 1018 30.06 847 25.01 -3 26.6 70 -7.7 18.2
06:15 1018 30.06 847 25.01 -3.2 26.3 74 -7.1 19.2
06:20 1018 30.06 847 25.01 -3.3 26 73 -7.5 18.5
06:25 1018 30.06 847 25.01 -3.4 26 74 -7.4 18.6
06:30 1018 30.06 847 25.01 -3.4 26 73 -7.6 18.4
06:35 1018 30.06 847 25.01 -3.3 26.2 74 -7.2 19
06:40 1018 30.06 847 25.01 -3.2 26.2 75 -7.1 19.2
06:45 1018 30.06 848 25.04 -3.2 26.3 76 -6.9 19.6
06:50 1018 30.06 848 25.04 -3.4 25.8 77 -6.9 19.5
06:55 1018 30.06 848 25.04 -3.5 25.8 77 -6.9 19.6
07:00 1018 30.06 848 25.04 -3.3 26.1 78 -6.6 20.1
07:05 1018 30.06 848 25.04 -3.5 25.7 79 -6.7 20
07:10 1019 30.09 848 25.04 -3.5 25.7 77 -7 19.5
07:15 1019 30.09 848 25.04 -3.2 26.2 77 -6.7 19.9
07:20 1019 30.09 848 25.04 -3.3 26.1 73 -7.5 18.5
07:25 1018 30.06 848 25.04 -3.2 26.2 78 -6.6 20.2
07:30 1018 30.06 848 25.04 -3.5 25.7 78 -6.9 19.6
07:35 1018 30.06 848 25.04 -3.3 26 73 -7.4 18.6
07:40 1018 30.06 848 25.04 -3.1 26.4 73 -7.4 18.8
07:45 1018 30.06 847 25.01 -3.2 26.3 77 -6.6 20.2
07:50 1018 30.06 847 25.01 -3.5 25.7 79 -6.6 20
07:55 1018 30.06 847 25.01 -3.5 25.8 79 -6.6 20.2
08:00 1018 30.06 847 25.01 -3.3 26 80 -6.4 20.6
08:05 1018 30.06 847 25.01 -3.4 25.8 83 -5.9 21.4
08:10 1018 30.06 847 25.01 -3.6 25.4 85 -5.9 21.4
08:15 1018 30.06 847 25.01 -3.7 25.3 85 -5.9 21.4
08:20 1018 30.06 847 25.01 -3.7 25.3 85 -5.9 21.5
08:25 1018 30.06 847 25.01 -3.6 25.5 86 -5.7 21.7
08:30 1018 30.06 847 25.01 -3.4 25.8 85 -5.6 21.9
08:35 1018 30.06 847 25.01 -3.3 26.1 84 -5.5 22
08:40 1018 30.06 847 25.01 -3.2 26.2 84 -5.6 22
08:45 1018 30.06 847 25.01 -3.2 26.2 84 -5.6 22
08:50 1018 30.06 847 25.01 -3.1 26.5 83 -5.6 22
08:55 1018 30.06 847 25.01 -2.9 26.7 82 -5.5 22
09:00 1018 30.06 847 25.01 -2.8 27 81 -5.5 22
09:05 1018 30.06 847 25.01 -3.2 26.3 83 -5.6 21.9
09:10 1018 30.06 847 25.01 -3.2 26.2 84 -5.6 21.9
09:15 1018 30.06 847 25.01 -3.2 26.3 83 -5.6 21.8
09:20 1018 30.06 848 25.04 -3.1 26.5 83 -5.5 22.1
09:25 1018 30.06 848 25.04 -3.1 26.5 83 -5.5 22
09:30 1018 30.06 847 25.01 -3.1 26.4 84 -5.5 22.1
09:35 1018 30.06 847 25.01 -2.9 26.8 82 -5.5 22.1
09:40 1018 30.06 847 25.01 -2.6 27.4 81 -5.4 22.2
09:45 1018 30.06 847 25.01 -2.4 27.7 80 -5.4 22.3
09:50 1018 30.06 847 25.01 -2.3 27.9 80 -5.3 22.5
09:55 1018 30.06 848 25.04 -2.2 28 80 -5.2 22.7
10:00 1018 30.06 848 25.04 -2.1 28.1 79 -5.3 22.4
10:05 1018 30.06 848 25.04 -2.3 27.9 80 -5.3 22.5
10:10 1018 30.06 848 25.04 -2.4 27.6 80 -5.5 22.1
10:15 1018 30.06 848 25.04 -2.3 27.9 79 -5.4 22.2
10:20 1018 30.06 848 25.04 -2.2 28 78 -5.5 22
10:25 1018 30.06 848 25.04 -1.4 29.5 73 -5.6 21.9
10:30 1018 30.06 848 25.04 -0.3 31.4 69 -5.3 22.4
10:35 1018 30.06 848 25.04 0.1 32.3 67 -5.4 22.4
10:40 1019 30.09 848 25.04 1 33.9 64 -5.1 22.8
10:45 1019 30.09 848 25.04 0.6 33.1 66 -5 23
10:50 1019 30.09 848 25.04 0.6 33.2 63 -5.7 21.7
10:55 1019 30.09 848 25.04 1.3 34.3 60 -5.6 21.8
11:00 1019 30.09 848 25.04 2.2 35.9 58 -5.2 22.7
11:05 1019 30.09 848 25.04 2.7 36.8 54 -5.8 21.5
11:10 1019 30.09 848 25.04 3 37.3 51 -6.2 20.9
11:15 1019 30.09 848 25.04 3.1 37.5 50 -6.4 20.5
11:20 1019 30.09 848 25.04 2.2 35.9 53 -6.4 20.6
11:25 1019 30.09 848 25.04 1.9 35.5 54 -6.5 20.3
11:30 1019 30.09 848 25.04 2.6 36.7 52 -6.4 20.5
11:35 1019 30.09 848 25.04 2.3 36.1 54 -6.1 20.9
11:40 1019 30.09 848 25.04 1.7 35.1 55 -6.3 20.6
11:45 1019 30.09 848 25.04 1.5 34.8 55 -6.6 20.2
11:50 1019 30.09 848 25.04 1.5 34.7 57 -6 21.1
11:55 1019 30.09 848 25.04 1.6 34.9 57 -6.1 21
12:00 1019 30.09 848 25.04 2 35.6 55 -6.2 20.9
12:05 1019 30.09 848 25.04 2.3 36.1 55 -5.8 21.6
12:10 1019 30.09 848 25.04 1.8 35.2 61 -4.9 23.2
12:15 1019 30.09 848 25.04 1.1 34 61 -5.5 22.1
12:20 1019 30.09 848 25.04 1.5 34.6 58 -5.9 21.3
12:25 1019 30.09 848 25.04 1.7 35.1 59 -5.5 22.2
12:30 1019 30.09 848 25.04 1.8 35.2 60 -5.3 22.5
12:35 1019 30.09 848 25.04 1.2 34.2 60 -5.7 21.8
12:40 1019 30.09 848 25.04 1.1 34.1 60 -5.9 21.4
12:45 1019 30.09 848 25.04 1.2 34.1 61 -5.6 21.9
12:50 1019 30.09 848 25.04 1.7 35 59 -5.4 22.3
12:55 1019 30.09 848 25.04 2.1 35.7 58 -5.2 22.6
13:00 1019 30.09 848 25.04 1.8 35.2 57 -5.8 21.6
13:05 1019 30.09 848 25.04 1.4 34.5 60 -5.6 21.9
13:10 1019 30.09 848 25.04 1.1 33.9 61 -5.7 21.7
13:15 1019 30.09 848 25.04 0.8 33.4 64 -5.2 22.6
13:20 1019 30.09 848 25.04 1 33.7 61 -5.6 21.8
13:25 1019 30.09 848 25.04 1.3 34.4 60 -5.6 22
13:30 1019 30.09 848 25.04 1.7 35.1 59 -5.4 22.2
13:35 1019 30.09 848 25.04 2.1 35.7 56 -5.8 21.5
13:40 1019 30.09 848 25.04 1.9 35.5 58 -5.5 22.1
13:45 1019 30.09 848 25.04 2 35.6 56 -5.9 21.5
13:50 1019 30.09 848 25.04 1.9 35.4 58 -5.6 22
13:55 1019 30.09 848 25.04 1.9 35.5 57 -5.6 21.8
14:00 1019 30.09 848 25.04 1.7 35.1 57 -6 21.3
14:05 1019 30.09 848 25.04 1.9 35.5 57 -5.7 21.7
14:10 1019 30.09 848 25.04 2 35.5 57 -5.6 21.9
14:15 1019 30.09 848 25.04 2.1 35.8 54 -6.2 20.8
14:20 1019 30.09 848 25.04 2.3 36.1 53 -6.3 20.7
14:25 1019 30.09 848 25.04 2.3 36.2 55 -5.9 21.4
14:30 1019 30.09 848 25.04 2.3 36.2 55 -5.7 21.7
14:35 1019 30.09 848 25.04 2.2 36 55 -6 21.1
14:40 1019 30.09 848 25.04 2.3 36.1 57 -5.4 22.3
14:45 1019 30.09 848 25.04 2 35.7 57 -5.6 21.9
14:50 1019 30.09 848 25.04 1.9 35.5 57 -5.7 21.8
14:55 1019 30.09 848 25.04 1.9 35.3 58 -5.4 22.2
15:00 1019 30.09 848 25.04 2.1 35.7 59 -5.1 22.9
15:05 1019 30.09 848 25.04 2.3 36.1 56 -5.6 21.9
15:10 1019 30.09 848 25.04 2.3 36.2 56 -5.5 22.1
15:15 1019 30.09 848 25.04 2.4 36.3 57 -5.2 22.6
15:20 1019 30.09 848 25.04 2.1 35.9 58 -5.3 22.4
15:25 1019 30.09 848 25.04 1.8 35.3 59 -5.4 22.3
15:30 1019 30.09 848 25.04 1.8 35.3 58 -5.5 22.1
15:35 1019 30.09 848 25.04 1.8 35.2 57 -5.9 21.4
15:40 1019 30.09 848 25.04 1.6 35 58 -5.9 21.5
15:45 1019 30.09 848 25.04 1.7 35.1 56 -6.2 20.8
15:50 1019 30.09 848 25.04 1.8 35.2 58 -5.7 21.7
15:55 1019 30.09 848 25.04 1.8 35.2 58 -5.6 22
16:00 1019 30.09 848 25.04 1.6 35 60 -5.3 22.4
16:05 1019 30.09 848 25.04 1.7 35.1 57 -5.8 21.5
16:10 1019 30.09 848 25.04 1.7 35.1 57 -5.9 21.4
16:15 1019 30.09 848 25.04 1.7 35.1 57 -5.9 21.3
16:20 1019 30.09 848 25.04 1.7 35 58 -5.8 21.5
16:25 1019 30.09 848 25.04 1.6 35 59 -5.4 22.2
16:30 1019 30.09 848 25.04 1.7 35 60 -5.2 22.7
16:35 1019 30.09 848 25.04 1.6 34.9 60 -5.3 22.5
16:40 1019 30.09 848 25.04 1.6 34.9 62 -4.9 23.2
16:45 1019 30.09 848 25.04 1.6 34.8 64 -4.5 23.9
16:50 1019 30.09 848 25.04 1.3 34.4 66 -4.4 24.1
16:55 1019 30.09 848 25.04 0.9 33.6 67 -4.6 23.8
17:00 1019 30.09 848 25.04 0.7 33.3 65 -5.1 22.8
17:05 1019 30.09 848 25.04 0.7 33.3 63 -5.5 22.1
17:10 1019 30.09 848 25.04 0.8 33.5 64 -5.2 22.7
17:15 1019 30.09 848 25.04 1 33.9 65 -4.8 23.3
17:20 1019 30.09 848 25.04 1 33.7 66 -4.7 23.5
17:25 1019 30.09 848 25.04 0.8 33.4 67 -4.7 23.6
17:30 1019 30.09 848 25.04 0.8 33.4 66 -4.8 23.3
17:35 1019 30.09 848 25.04 0.7 33.2 67 -4.7 23.6
17:40 1019 30.09 848 25.04 0.6 33.1 69 -4.4 24
17:45 1019 30.09 848 25.04 0.5 32.9 69 -4.6 23.8
17:50 1019 30.09 848 25.04 0.4 32.7 71 -4.2 24.4
17:55 1019 30.09 848 25.04 0.2 32.4 73 -4 24.8
18:00 1019 30.09 848 25.04 0.1 32.1 73 -4.2 24.4
18:05 1019 30.09 848 25.04 0.1 32.2 74 -4.1 24.7
18:10 1019 30.09 848 25.04 -0 31.9 74 -4.1 24.6
18:15 1019 30.09 848 25.04 -0.2 31.6 75 -4.1 24.7
18:20 1019 30.09 848 25.04 -0.5 31.2 76 -4.2 24.5
18:25 1019 30.09 848 25.04 -0.5 31.1 77 -4 24.8
18:30 1019 30.09 848 25.04 -0.6 30.9 78 -4 24.8
18:35 1019 30.09 848 25.04 -0.7 30.7 78 -4.1 24.6
18:40 1019 30.09 848 25.04 -0.5 31.2 75 -4.4 24.1
18:45 1019 30.09 848 25.04 -0.2 31.6 74 -4.4 24.2
18:50 1019 30.09 848 25.04 -0.1 31.9 71 -4.7 23.6
18:55 1019 30.09 848 25.04 0 32.1 70 -4.9 23.2
19:00 1018 30.06 848 25.04 0.2 32.3 68 -5 23
19:05 1018 30.06 848 25.04 0.5 32.8 64 -5.5 22.1
19:10 1018 30.06 848 25.04 0.8 33.5 65 -5 23.1
19:15 1018 30.06 848 25.04 0.8 33.5 64 -5.2 22.7
19:20 1018 30.06 848 25.04 0.9 33.6 62 -5.5 22
19:25 1018 30.06 847 25.01 0.8 33.4 67 -4.7 23.6
19:30 1018 30.06 847 25.01 0.1 32.1 74 -4.1 24.7
19:35 1018 30.06 847 25.01 -0.9 30.4 77 -4.4 24
19:40 1018 30.06 847 25.01 -1.3 29.7 78 -4.6 23.8
19:45 1018 30.06 847 25.01 -1.5 29.3 79 -4.7 23.6
19:50 1018 30.06 847 25.01 -1.6 29.2 77 -5.2 22.7
19:55 1018 30.06 847 25.01 -1.7 29 77 -5.2 22.6
20:00 1018 30.06 847 25.01 -1.8 28.8 76 -5.4 22.3
20:05 1018 30.06 847 25.01 -1.7 28.9 74 -5.8 21.6
20:10 1018 30.06 847 25.01 -1.4 29.5 73 -5.5 22
20:15 1018 30.06 847 25.01 -1.3 29.6 73 -5.6 21.9
20:20 1018 30.06 847 25.01 -1.4 29.5 73 -5.6 21.9
20:25 1018 30.06 847 25.01 -1.4 29.4 74 -5.6 22
20:30 1018 30.06 847 25.01 -1.6 29.2 75 -5.4 22.4
20:35 1018 30.06 847 25.01 -1.5 29.3 75 -5.3 22.4
20:40 1018 30.06 847 25.01 -1.4 29.5 74 -5.4 22.3
20:45 1018 30.06 847 25.01 -1.2 29.8 74 -5.3 22.4
20:50 1018 30.06 847 25.01 -1.2 29.9 73 -5.3 22.4
20:55 1018 30.06 847 25.01 -1.2 29.9 74 -5.2 22.6
21:00 1018 30.06 847 25.01 -1.1 30.1 73 -5.3 22.5
21:05 1018 30.06 847 25.01 -1 30.2 73 -5.3 22.4
21:10 1018 30.06 847 25.01 -0.9 30.3 72 -5.4 22.3
21:15 1018 30.06 847 25.01 -0.9 30.4 71 -5.5 22.1
21:20 1018 30.06 847 25.01 -0.7 30.7 70 -5.5 22.2
21:25 1018 30.06 847 25.01 -0.7 30.8 70 -5.5 22.1
21:30 1018 30.06 847 25.01 -0.5 31.1 70 -5.4 22.3
21:35 1018 30.06 847 25.01 -0.3 31.4 68 -5.5 22.2
21:40 1018 30.06 847 25.01 -0.2 31.6 69 -5.3 22.5
21:45 1018 30.06 847 25.01 -0.2 31.6 68 -5.4 22.4
21:50 1018 30.06 847 25.01 -0.3 31.5 69 -5.3 22.5
21:55 1018 30.06 847 25.01 -0.2 31.7 69 -5.2 22.6
22:00 1018 30.06 847 25.01 -0.5 31.2 69 -5.4 22.3
22:05 1018 30.06 847 25.01 -0.5 31.1 70 -5.2 22.6
22:10 1018 30.06 847 25.01 -0.7 30.7 71 -5.3 22.5
22:15 1018 30.06 847 25.01 -0.9 30.3 73 -5.2 22.7
22:20 1018 30.06 847 25.01 -1.2 29.9 73 -5.5 22.2
22:25 1018 30.06 847 25.01 -1.3 29.7 73 -5.5 22.1
22:30 1018 30.06 847 25.01 -1 30.2 71 -5.6 21.9
22:35 1018 30.06 847 25.01 -0.8 30.5 70 -5.7 21.8
22:40 1018 30.06 847 25.01 -0.7 30.7 71 -5.3 22.5
22:45 1018 30.06 847 25.01 -0.6 30.9 69 -5.5 22
22:50 1018 30.06 847 25.01 -0.3 31.5 68 -5.4 22.3
22:55 1018 30.06 847 25.01 -0.2 31.6 70 -5.1 22.8
23:00 1018 30.06 847 25.01 -0.6 30.9 69 -5.5 22.1
23:05 1018 30.06 847 25.01 -0.4 31.3 70 -5.2 22.6
23:10 1018 30.06 847 25.01 -0.4 31.2 71 -5 22.9
23:15 1018 30.06 847 25.01 -0.6 30.9 71 -5.2 22.7
23:20 1018 30.06 847 25.01 -0.8 30.5 72 -5.3 22.4
23:25 1018 30.06 847 25.01 -0.8 30.6 73 -5.1 22.9
23:30 1018 30.06 847 25.01 -0.9 30.4 72 -5.3 22.4
23:35 1018 30.06 847 25.01 -0.8 30.5 70 -5.5 22
23:40 1018 30.06 847 25.01 -0.8 30.5 75 -4.7 23.5
23:45 1018 30.06 847 25.01 -0.9 30.3 77 -4.4 24.1
23:50 1018 30.06 847 25.01 -1.1 30 77 -4.7 23.5
23:55 1018 30.06 847 25.01 -1.2 29.9 77 -4.7 23.5
24:00 1018 30.06 847 25.01 -1.4 29.4 77 -4.9 23.2